默认 日期 大小 文件数 浏览量 最新下载 xml
path磁力链接相关资源由用户搜索指令自动获取,结果来源于网络,本站不存储任何资料,亦不承担任何责任,请于24小时内删除,搜索到7226个磁力,显示前4000条数据,用时7ms。
    ... ": 571, "An Age Lost - The Path Of Solitude EP - 04 Visions ... ": 79418736, "An Age Lost - The Path Of Solitude EP - 01 Red ... ": 51321208, "An Age Lost - The Path Of Solitude EP - 03 Hidden ... ": 55178875, "An Age Lost - The Path Of Solitude EP - 02 Temple ...
创建时间: 2023-05-24 09:09:35 大小:235.07 MB 文件数量:8 热度:7 最近下载:2025-02-18 19:50:05
    {"Subs": {"2_English.srt": 66291}, "RARBG.txt": 30, "RARBG_DO_NOT_MIRROR.exe": 99, "Narrow.Path.to.Happiness.2023.HUNGARIAN.1080p.WEBRip.x265-VXT.mp4": 1389275938}
创建时间: 2023-05-23 21:59:28 大小:1.29 GB 文件数量:4 热度:5 最近下载:2025-03-01 13:40:04
    {"RARBG.txt": 30, "The.Path.S02E03.720p.HDTV.x264-AVS.mkv": 1246113615, "the.path.s02e03.720p.hdtv.x264-avs.nfo": 57}
创建时间: 2023-05-23 07:51:14 大小:1.16 GB 文件数量:3 热度:5 最近下载:2025-02-17 15:16:01
    {"www.YTS.MX.jpg": 53226, "YTSYifyUP... (TOR).txt": 473, "Narrow.Path.To.Happiness.2023.HUNGARIAN.1080p.WEBRip.x264.AAC-[YTS.MX].mp4": 1485400487, "Narrow.Path.To.Happiness.2023.HUNGARIAN.1080p.WEBRip.x264.AAC-[YTS.MX].srt": 65913}
创建时间: 2023-05-22 22:26:01 大小:1.38 GB 文件数量:4 热度:4 最近下载:2025-01-12 12:09:09
    {"Subs": {"2_English.srt": 66291}, "RARBG.txt": 30, "RARBG_DO_NOT_MIRROR.exe": 99, "Narrow.Path.to.Happiness.2023.HUNGARIAN.WEBRip.x264-VXT.mp4": 848400738}
创建时间: 2023-05-22 22:00:38 大小:809.16 MB 文件数量:4 热度:4 最近下载:2025-02-13 03:19:01
    ... from torrentgalaxy.to .txt": 718, "Path.Of.The.Panther.2022.1080p ... .WEBRip.x265-LAMA.mp4": 1433172193, "Path.Of.The.Panther.2022.1080p ...
创建时间: 2023-05-22 19:55:16 大小:1.34 GB 文件数量:14 热度:5 最近下载:2025-02-11 07:30:03
    {"~i.txt": 1622, "scr 2023-04.png": 145445, "1. Flask. Getting Started (Reindert-Jan Ekker, 2019)": {"~i.txt": 1257, "cover.jpg": 104655, "exercise.7z": 636584, "playlist.m3u": 2580, "2. First Steps": {"9. Review.mp4": 6600059, "9. Review.vtt": 6248, "1. ...
创建时间: 2023-05-22 06:30:47 大小:1.46 GB 文件数量:338 热度:5 最近下载:2025-02-07 13:49:04
    {"Lesser Souls_ The Path of Celes - D. R. R. Hatch.epub": 1389379}
创建时间: 2023-05-21 23:32:31 大小:1.33 MB 文件数量:1 热度:8 最近下载:2025-09-19 01:13:05
    {"The Path of Ascension 3.cue": 2077, "The Path of Ascension 3.m4b": 1312920170, "The Path of Ascension 3.nfo": 996}
创建时间: 2023-05-21 18:46:20 大小:1.22 GB 文件数量:3 热度:8 最近下载:2025-01-21 23:55:07
    {"folder.jpg": 4205594, "01 Path Of Fierce Resistance.flac": 55851454}
创建时间: 2023-05-21 17:49:50 大小:57.27 MB 文件数量:2 热度:5 最近下载:2025-08-05 05:52:04
    ... ": 6944, "1. Introduction and Path Overview.mp4": 5389528, "1. ... Introduction and Path Overview.vtt": 4930}, "6. ... , "1. Introduction and Learning Path.mp4": 5283820, "1. Introduction ... and Learning Path.vtt": 5522}, "05. Windows ...
创建时间: 2023-05-21 08:11:29 大小:2.24 GB 文件数量:424 热度:6 最近下载:2025-03-31 06:23:03
    ... .mp3": 16650232, "01. The Endless Path.mp3": 3380028, "03. Barbed Wire ... ": 6230510, "08. Stray from the Path.mp3": 13590771}
创建时间: 2023-05-21 05:44:22 大小:87.74 MB 文件数量:9 热度:6 最近下载:2025-02-09 04:49:05
    ... .torrenting.me.txt": 79, "The.Path.S02E02.Dead.Moon.1080p.AMZN ... .x264-NTb.mkv": 2844749766, "The.Path.S02E02.Dead.Moon.1080p.AMZN ...
创建时间: 2023-05-20 08:10:34 大小:2.66 GB 文件数量:7 热度:5 最近下载:2025-02-12 00:28:05
    {"Crack": {"tenoke.ini": 1333, "steam_api64.dll": 775168}, "Update": {"PATCH.exe": 7319378, "Patch.bin": 175517983}, "changelog.txt": 3257, "tenoke-path.of.the.midnight.sun.update.v1.3.nfo": 5994}
创建时间: 2023-05-20 06:08:07 大小:175.12 MB 文件数量:6 热度:6 最近下载:2025-09-15 12:49:09
    ... , Hun.flac": 79795364, "11 - Myriad Path.flac": 98107026, "03 - Volcano Call ...
创建时间: 2023-05-18 15:50:58 大小:862.35 MB 文件数量:13 热度:4 最近下载:2025-02-19 01:44:01
    {"cover.jpg": 44992, "03 Cryptic Fog.mp3": 19424778, "04 Forever Lost .mp3": 12814755, "05 October Ghost.mp3": 17204374, "02 Living Plague .mp3": 11077092, "01 Beast of God's Creation.mp3": 36780572}
创建时间: 2023-05-18 06:09:42 大小:92.84 MB 文件数量:6 热度:6 最近下载:2025-02-11 16:51:05
    ... Phoenicia_spectrogram.png": 300180, "Arrayan Path - Thus Always To Tyrants ... jpg": 93603, "arrayan-path-thus-always-to-tyrants-2022_meta ... xml": 806, "arrayan-path-thus-always-to-tyrants-2022_meta ... .sqlite": 45056, "Arrayan Path - Thus Always To Tyrants ...
创建时间: 2023-05-17 23:25:43 大小:151.78 MB 文件数量:38 热度:6 最近下载:2025-09-19 00:44:02
    {"Empress Mai - Lulu Winterspring.epub": 274154, "Empress Mai - Lulu Winterspring.mobi": 336277}
创建时间: 2023-05-17 19:26:27 大小:596.12 KB 文件数量:2 热度:7 最近下载:2025-09-15 18:34:01
    {"Marcel Kenenberg - The Follow Of Path 053.mp3": 291841044}
创建时间: 2023-05-17 07:39:03 大小:278.32 MB 文件数量:1 热度:5 最近下载:2025-01-15 10:39:03
    {"~i.txt": 2663, "scr 2023-04.png": 233179, "B2. Scala Collections (Toby Weston, 2020)": {"~i.txt": 1280, "cover.jpg": 314444, "exercise.7z": 41641000, "playlist.m3u": 1913, "1. Course Overview": {"1. Course Overview.mp4": 3070587, "1. Course Overview.vtt ...
创建时间: 2023-05-16 21:46:06 大小:2.38 GB 文件数量:726 热度:14 最近下载:2025-03-30 13:07:02